Terminal Aerodrome Forecast
Issued by NWS Buffalo, NY

Home | Current Version | Previous Version | Text Only | Print | Product List | Glossary On
Versions: 1 2 3 4 5 6 7 8 9 10 11 12 13 14 15 16 17 18 19
000
FTUS41 KBUF 242111 AAA
TAFBUF
TAF AMD
KBUF 242111Z 2421/2518 23015G21KT P6SM BKN250
     FM242300 21005KT P6SM BKN140
     FM250500 18006KT P6SM OVC090
     FM251500 21012G18KT P6SM BKN060=

USA.gov is the U.S. government's official web portal to all federal, state and local government web resources and services.